sensor_id;sensor_type;location;lat;lon;timestamp;P1;durP1;ratioP1;P2;durP2;ratioP2
35478;SDS011;21594;49.794;18.652;2022-07-29T00:02:03;5.15;;;3.70;;
35478;SDS011;21594;49.794;18.652;2022-07-29T00:04:30;7.10;;;3.75;;
35478;SDS011;21594;49.794;18.652;2022-07-29T00:06:58;5.22;;;3.15;;
35478;SDS011;21594;49.794;18.652;2022-07-29T00:09:29;5.17;;;3.25;;
35478;SDS011;21594;49.794;18.652;2022-07-29T00:11:53;5.12;;;3.17;;
35478;SDS011;21594;49.794;18.652;2022-07-29T00:14:30;6.17;;;3.40;;
35478;SDS011;21594;49.794;18.652;2022-07-29T00:16:57;5.12;;;3.72;;
35478;SDS011;21594;49.794;18.652;2022-07-29T00:19:21;6.28;;;3.10;;
35478;SDS011;21594;49.794;18.652;2022-07-29T00:21:53;5.03;;;2.95;;
35478;SDS011;21594;49.794;18.652;2022-07-29T00:24:19;5.15;;;3.20;;
35478;SDS011;21594;49.794;18.652;2022-07-29T00:26:52;4.62;;;3.20;;
35478;SDS011;21594;49.794;18.652;2022-07-29T00:29:18;4.65;;;3.05;;
35478;SDS011;21594;49.794;18.652;2022-07-29T00:31:45;5.20;;;3.12;;
35478;SDS011;21594;49.794;18.652;2022-07-29T00:34:11;4.25;;;3.40;;
35478;SDS011;21594;49.794;18.652;2022-07-29T00:36:56;5.40;;;3.50;;
35478;SDS011;21594;49.794;18.652;2022-07-29T00:39:23;4.90;;;3.42;;
35478;SDS011;21594;49.794;18.652;2022-07-29T00:41:55;6.67;;;3.40;;
35478;SDS011;21594;49.794;18.652;2022-07-29T00:44:23;7.00;;;3.40;;
35478;SDS011;21594;49.794;18.652;2022-07-29T00:46:49;4.17;;;3.12;;
35478;SDS011;21594;49.794;18.652;2022-07-29T00:49:15;3.15;;;2.85;;
35478;SDS011;21594;49.794;18.652;2022-07-29T00:51:42;5.33;;;3.25;;
35478;SDS011;21594;49.794;18.652;2022-07-29T00:54:10;4.67;;;2.72;;
35478;SDS011;21594;49.794;18.652;2022-07-29T00:56:42;5.33;;;3.55;;
35478;SDS011;21594;49.794;18.652;2022-07-29T00:59:08;7.05;;;3.33;;
35478;SDS011;21594;49.794;18.652;2022-07-29T01:01:35;4.75;;;3.30;;
35478;SDS011;21594;49.794;18.652;2022-07-29T01:04:03;5.75;;;3.47;;
35478;SDS011;21594;49.794;18.652;2022-07-29T01:06:32;3.50;;;2.95;;
35478;SDS011;21594;49.794;18.652;2022-07-29T01:11:39;5.17;;;3.33;;
35478;SDS011;21594;49.794;18.652;2022-07-29T01:14:06;7.65;;;2.98;;
35478;SDS011;21594;49.794;18.652;2022-07-29T01:16:37;2.77;;;2.52;;
35478;SDS011;21594;49.794;18.652;2022-07-29T01:19:18;4.35;;;3.33;;
35478;SDS011;21594;49.794;18.652;2022-07-29T01:22:02;3.52;;;2.95;;
35478;SDS011;21594;49.794;18.652;2022-07-29T01:27:17;5.72;;;3.00;;
35478;SDS011;21594;49.794;18.652;2022-07-29T01:29:57;3.45;;;2.98;;
35478;SDS011;21594;49.794;18.652;2022-07-29T01:32:29;3.75;;;2.62;;
35478;SDS011;21594;49.794;18.652;2022-07-29T01:40:25;9.10;;;3.92;;
35478;SDS011;21594;49.794;18.652;2022-07-29T01:42:54;5.03;;;3.37;;
35478;SDS011;21594;49.794;18.652;2022-07-29T01:48:18;6.30;;;3.25;;
35478;SDS011;21594;49.794;18.652;2022-07-29T01:50:52;4.10;;;3.33;;
35478;SDS011;21594;49.794;18.652;2022-07-29T01:53:29;5.17;;;3.52;;
35478;SDS011;21594;49.794;18.652;2022-07-29T01:56:02;6.03;;;3.62;;
35478;SDS011;21594;49.794;18.652;2022-07-29T01:58:31;6.28;;;3.35;;
35478;SDS011;21594;49.794;18.652;2022-07-29T02:00:59;4.17;;;2.95;;
35478;SDS011;21594;49.794;18.652;2022-07-29T02:03:38;6.05;;;3.08;;
35478;SDS011;21594;49.794;18.652;2022-07-29T02:06:06;5.22;;;2.92;;
35478;SDS011;21594;49.794;18.652;2022-07-29T02:08:35;5.87;;;3.42;;
35478;SDS011;21594;49.794;18.652;2022-07-29T02:11:04;4.10;;;3.12;;
35478;SDS011;21594;49.794;18.652;2022-07-29T02:13:32;4.35;;;3.42;;
35478;SDS011;21594;49.794;18.652;2022-07-29T02:16:01;5.33;;;3.58;;
35478;SDS011;21594;49.794;18.652;2022-07-29T02:18:30;6.83;;;3.70;;
35478;SDS011;21594;49.794;18.652;2022-07-29T02:21:01;4.22;;;3.10;;
35478;SDS011;21594;49.794;18.652;2022-07-29T02:23:29;5.60;;;3.40;;
35478;SDS011;21594;49.794;18.652;2022-07-29T02:25:58;5.10;;;3.58;;
35478;SDS011;21594;49.794;18.652;2022-07-29T02:28:27;5.90;;;3.55;;
35478;SDS011;21594;49.794;18.652;2022-07-29T02:31:00;6.03;;;3.52;;
35478;SDS011;21594;49.794;18.652;2022-07-29T02:33:28;6.78;;;3.95;;
35478;SDS011;21594;49.794;18.652;2022-07-29T02:38:33;5.37;;;3.47;;
35478;SDS011;21594;49.794;18.652;2022-07-29T02:41:24;4.20;;;3.37;;
35478;SDS011;21594;49.794;18.652;2022-07-29T02:44:03;4.58;;;3.95;;
35478;SDS011;21594;49.794;18.652;2022-07-29T02:46:37;4.97;;;3.65;;
35478;SDS011;21594;49.794;18.652;2022-07-29T02:51:40;5.10;;;3.83;;
35478;SDS011;21594;49.794;18.652;2022-07-29T02:54:14;5.83;;;3.98;;
35478;SDS011;21594;49.794;18.652;2022-07-29T02:56:57;7.45;;;4.00;;
35478;SDS011;21594;49.794;18.652;2022-07-29T02:59:29;6.92;;;3.83;;
35478;SDS011;21594;49.794;18.652;2022-07-29T03:01:58;4.67;;;4.15;;
35478;SDS011;21594;49.794;18.652;2022-07-29T03:04:27;4.42;;;3.47;;
35478;SDS011;21594;49.794;18.652;2022-07-29T03:06:56;4.95;;;3.52;;
35478;SDS011;21594;49.794;18.652;2022-07-29T03:09:25;5.67;;;3.80;;
35478;SDS011;21594;49.794;18.652;2022-07-29T03:11:52;5.45;;;4.10;;
35478;SDS011;21594;49.794;18.652;2022-07-29T03:14:21;5.12;;;3.92;;
35478;SDS011;21594;49.794;18.652;2022-07-29T03:16:48;5.35;;;3.67;;
35478;SDS011;21594;49.794;18.652;2022-07-29T03:19:19;5.65;;;3.67;;
35478;SDS011;21594;49.794;18.652;2022-07-29T03:21:49;9.73;;;4.35;;
35478;SDS011;21594;49.794;18.652;2022-07-29T03:24:25;4.75;;;3.80;;
35478;SDS011;21594;49.794;18.652;2022-07-29T03:26:50;6.47;;;3.70;;
35478;SDS011;21594;49.794;18.652;2022-07-29T03:29:16;4.35;;;3.95;;
35478;SDS011;21594;49.794;18.652;2022-07-29T03:31:42;3.98;;;3.45;;
35478;SDS011;21594;49.794;18.652;2022-07-29T03:34:10;6.40;;;3.83;;
35478;SDS011;21594;49.794;18.652;2022-07-29T03:36:37;6.22;;;4.00;;
35478;SDS011;21594;49.794;18.652;2022-07-29T03:39:03;4.33;;;3.42;;
35478;SDS011;21594;49.794;18.652;2022-07-29T03:41:31;4.20;;;3.30;;
35478;SDS011;21594;49.794;18.652;2022-07-29T03:44:02;4.40;;;2.90;;
35478;SDS011;21594;49.794;18.652;2022-07-29T03:46:35;6.30;;;3.35;;
35478;SDS011;21594;49.794;18.652;2022-07-29T03:49:03;4.15;;;3.10;;
35478;SDS011;21594;49.794;18.652;2022-07-29T03:51:33;5.97;;;3.65;;
35478;SDS011;21594;49.794;18.652;2022-07-29T03:54:01;6.03;;;3.47;;
35478;SDS011;21594;49.794;18.652;2022-07-29T03:56:29;4.97;;;3.52;;
35478;SDS011;21594;49.794;18.652;2022-07-29T03:58:57;6.35;;;3.65;;
35478;SDS011;21594;49.794;18.652;2022-07-29T04:01:27;4.05;;;3.02;;
35478;SDS011;21594;49.794;18.652;2022-07-29T04:03:58;7.42;;;3.72;;
35478;SDS011;21594;49.794;18.652;2022-07-29T04:06:25;4.12;;;3.45;;
35478;SDS011;21594;49.794;18.652;2022-07-29T04:08:51;5.30;;;3.90;;
35478;SDS011;21594;49.794;18.652;2022-07-29T04:11:18;5.62;;;3.72;;
35478;SDS011;21594;49.794;18.652;2022-07-29T04:13:45;7.78;;;4.53;;
35478;SDS011;21594;49.794;18.652;2022-07-29T04:16:11;5.75;;;4.00;;
35478;SDS011;21594;49.794;18.652;2022-07-29T04:18:40;5.03;;;3.87;;
35478;SDS011;21594;49.794;18.652;2022-07-29T04:21:06;6.35;;;4.25;;
35478;SDS011;21594;49.794;18.652;2022-07-29T04:23:33;5.72;;;4.25;;
35478;SDS011;21594;49.794;18.652;2022-07-29T04:25:59;8.65;;;4.53;;
35478;SDS011;21594;49.794;18.652;2022-07-29T04:28:26;5.97;;;3.75;;
35478;SDS011;21594;49.794;18.652;2022-07-29T04:30:53;6.22;;;4.25;;
35478;SDS011;21594;49.794;18.652;2022-07-29T04:33:19;5.80;;;4.65;;
35478;SDS011;21594;49.794;18.652;2022-07-29T04:35:45;5.50;;;4.75;;
35478;SDS011;21594;49.794;18.652;2022-07-29T04:38:11;5.72;;;3.67;;
35478;SDS011;21594;49.794;18.652;2022-07-29T04:40:38;4.80;;;3.50;;
35478;SDS011;21594;49.794;18.652;2022-07-29T04:43:08;4.95;;;3.92;;
35478;SDS011;21594;49.794;18.652;2022-07-29T04:45:32;5.55;;;3.75;;
35478;SDS011;21594;49.794;18.652;2022-07-29T04:47:58;8.30;;;4.25;;
35478;SDS011;21594;49.794;18.652;2022-07-29T04:50:24;5.42;;;4.42;;
35478;SDS011;21594;49.794;18.652;2022-07-29T04:52:51;6.42;;;4.08;;
35478;SDS011;21594;49.794;18.652;2022-07-29T04:55:17;5.15;;;3.52;;
35478;SDS011;21594;49.794;18.652;2022-07-29T04:57:46;4.85;;;3.85;;
35478;SDS011;21594;49.794;18.652;2022-07-29T05:00:18;5.62;;;3.50;;
35478;SDS011;21594;49.794;18.652;2022-07-29T05:02:49;5.03;;;3.70;;
35478;SDS011;21594;49.794;18.652;2022-07-29T05:05:15;4.65;;;3.67;;
35478;SDS011;21594;49.794;18.652;2022-07-29T05:07:41;4.97;;;3.70;;
35478;SDS011;21594;49.794;18.652;2022-07-29T05:10:08;4.62;;;3.30;;
35478;SDS011;21594;49.794;18.652;2022-07-29T05:12:34;5.95;;;3.70;;
35478;SDS011;21594;49.794;18.652;2022-07-29T05:15:01;3.87;;;3.45;;
35478;SDS011;21594;49.794;18.652;2022-07-29T05:17:27;6.37;;;3.90;;
35478;SDS011;21594;49.794;18.652;2022-07-29T05:22:26;5.92;;;3.87;;
35478;SDS011;21594;49.794;18.652;2022-07-29T05:27:28;5.62;;;3.60;;
35478;SDS011;21594;49.794;18.652;2022-07-29T05:29:54;3.87;;;3.47;;
35478;SDS011;21594;49.794;18.652;2022-07-29T05:32:20;4.83;;;3.42;;
35478;SDS011;21594;49.794;18.652;2022-07-29T05:34:56;5.80;;;3.70;;
35478;SDS011;21594;49.794;18.652;2022-07-29T05:37:22;5.42;;;3.55;;
35478;SDS011;21594;49.794;18.652;2022-07-29T05:39:48;5.35;;;3.22;;
35478;SDS011;21594;49.794;18.652;2022-07-29T05:42:14;6.53;;;3.50;;
35478;SDS011;21594;49.794;18.652;2022-07-29T05:44:41;4.62;;;3.30;;
35478;SDS011;21594;49.794;18.652;2022-07-29T05:47:07;8.20;;;3.47;;
35478;SDS011;21594;49.794;18.652;2022-07-29T05:49:34;6.08;;;3.87;;
35478;SDS011;21594;49.794;18.652;2022-07-29T05:52:00;5.58;;;3.92;;
35478;SDS011;21594;49.794;18.652;2022-07-29T05:54:27;5.95;;;3.60;;
35478;SDS011;21594;49.794;18.652;2022-07-29T05:56:53;4.72;;;3.80;;
35478;SDS011;21594;49.794;18.652;2022-07-29T05:59:20;4.67;;;3.60;;
35478;SDS011;21594;49.794;18.652;2022-07-29T06:01:47;4.62;;;3.33;;
35478;SDS011;21594;49.794;18.652;2022-07-29T06:04:20;7.65;;;3.60;;
35478;SDS011;21594;49.794;18.652;2022-07-29T06:06:47;4.17;;;3.37;;
35478;SDS011;21594;49.794;18.652;2022-07-29T06:09:13;4.40;;;3.35;;
35478;SDS011;21594;49.794;18.652;2022-07-29T06:11:41;5.35;;;3.70;;
35478;SDS011;21594;49.794;18.652;2022-07-29T06:14:16;7.17;;;4.05;;
35478;SDS011;21594;49.794;18.652;2022-07-29T06:16:43;5.62;;;4.08;;
35478;SDS011;21594;49.794;18.652;2022-07-29T06:19:15;6.55;;;3.55;;
35478;SDS011;21594;49.794;18.652;2022-07-29T06:21:45;6.97;;;3.65;;
35478;SDS011;21594;49.794;18.652;2022-07-29T06:24:15;5.80;;;3.92;;
35478;SDS011;21594;49.794;18.652;2022-07-29T06:26:41;6.10;;;3.10;;
35478;SDS011;21594;49.794;18.652;2022-07-29T06:29:08;5.40;;;3.85;;
35478;SDS011;21594;49.794;18.652;2022-07-29T06:31:38;6.17;;;3.85;;
35478;SDS011;21594;49.794;18.652;2022-07-29T06:34:05;5.60;;;3.60;;
35478;SDS011;21594;49.794;18.652;2022-07-29T06:36:34;7.70;;;3.50;;
35478;SDS011;21594;49.794;18.652;2022-07-29T06:39:01;4.97;;;3.75;;
35478;SDS011;21594;49.794;18.652;2022-07-29T06:41:29;5.08;;;3.83;;
35478;SDS011;21594;49.794;18.652;2022-07-29T06:43:55;5.25;;;3.65;;
35478;SDS011;21594;49.794;18.652;2022-07-29T06:46:21;6.05;;;3.42;;
35478;SDS011;21594;49.794;18.652;2022-07-29T06:48:48;5.05;;;3.30;;
35478;SDS011;21594;49.794;18.652;2022-07-29T06:51:15;4.92;;;3.20;;
35478;SDS011;21594;49.794;18.652;2022-07-29T06:53:42;5.70;;;3.20;;
35478;SDS011;21594;49.794;18.652;2022-07-29T06:56:10;7.53;;;3.75;;
35478;SDS011;21594;49.794;18.652;2022-07-29T06:58:40;5.45;;;3.60;;
35478;SDS011;21594;49.794;18.652;2022-07-29T07:01:06;6.65;;;3.60;;
35478;SDS011;21594;49.794;18.652;2022-07-29T07:03:33;3.87;;;3.47;;
35478;SDS011;21594;49.794;18.652;2022-07-29T07:05:59;6.33;;;3.83;;
35478;SDS011;21594;49.794;18.652;2022-07-29T07:08:26;4.22;;;3.47;;
35478;SDS011;21594;49.794;18.652;2022-07-29T07:10:55;5.70;;;3.30;;
35478;SDS011;21594;49.794;18.652;2022-07-29T07:13:24;4.53;;;3.25;;
35478;SDS011;21594;49.794;18.652;2022-07-29T07:15:50;8.18;;;3.37;;
35478;SDS011;21594;49.794;18.652;2022-07-29T07:18:17;4.83;;;3.47;;
35478;SDS011;21594;49.794;18.652;2022-07-29T07:20:45;4.35;;;3.80;;
35478;SDS011;21594;49.794;18.652;2022-07-29T07:23:11;4.75;;;3.20;;
35478;SDS011;21594;49.794;18.652;2022-07-29T07:25:38;8.03;;;3.35;;
35478;SDS011;21594;49.794;18.652;2022-07-29T07:28:09;4.05;;;3.15;;
35478;SDS011;21594;49.794;18.652;2022-07-29T07:30:41;4.40;;;3.33;;
35478;SDS011;21594;49.794;18.652;2022-07-29T07:33:08;4.65;;;3.60;;
35478;SDS011;21594;49.794;18.652;2022-07-29T07:35:43;5.45;;;3.77;;
35478;SDS011;21594;49.794;18.652;2022-07-29T07:38:09;3.60;;;3.30;;
35478;SDS011;21594;49.794;18.652;2022-07-29T07:40:35;6.25;;;3.50;;
35478;SDS011;21594;49.794;18.652;2022-07-29T07:43:02;5.17;;;3.12;;
35478;SDS011;21594;49.794;18.652;2022-07-29T07:45:28;6.35;;;3.80;;
35478;SDS011;21594;49.794;18.652;2022-07-29T07:47:55;6.12;;;3.52;;
35478;SDS011;21594;49.794;18.652;2022-07-29T07:50:24;5.30;;;3.33;;
35478;SDS011;21594;49.794;18.652;2022-07-29T07:52:51;5.90;;;3.50;;
35478;SDS011;21594;49.794;18.652;2022-07-29T07:55:19;6.70;;;3.50;;
35478;SDS011;21594;49.794;18.652;2022-07-29T07:57:52;6.10;;;3.47;;
35478;SDS011;21594;49.794;18.652;2022-07-29T08:00:20;5.35;;;3.50;;
35478;SDS011;21594;49.794;18.652;2022-07-29T08:02:53;7.55;;;3.55;;
35478;SDS011;21594;49.794;18.652;2022-07-29T08:05:19;7.60;;;4.00;;
35478;SDS011;21594;49.794;18.652;2022-07-29T08:07:47;6.62;;;4.15;;
35478;SDS011;21594;49.794;18.652;2022-07-29T08:10:20;6.00;;;3.50;;
35478;SDS011;21594;49.794;18.652;2022-07-29T08:12:45;4.85;;;3.35;;
35478;SDS011;21594;49.794;18.652;2022-07-29T08:15:13;4.87;;;3.30;;
35478;SDS011;21594;49.794;18.652;2022-07-29T08:17:39;6.75;;;3.70;;
35478;SDS011;21594;49.794;18.652;2022-07-29T08:20:11;5.22;;;3.33;;
35478;SDS011;21594;49.794;18.652;2022-07-29T08:22:35;6.42;;;3.95;;
35478;SDS011;21594;49.794;18.652;2022-07-29T08:25:02;6.37;;;3.50;;
35478;SDS011;21594;49.794;18.652;2022-07-29T08:27:37;5.47;;;2.83;;
35478;SDS011;21594;49.794;18.652;2022-07-29T08:30:06;5.58;;;3.02;;
35478;SDS011;21594;49.794;18.652;2022-07-29T08:32:35;4.47;;;3.62;;
35478;SDS011;21594;49.794;18.652;2022-07-29T08:35:01;4.42;;;3.35;;
35478;SDS011;21594;49.794;18.652;2022-07-29T08:37:27;6.12;;;3.65;;
35478;SDS011;21594;49.794;18.652;2022-07-29T08:39:54;4.30;;;3.15;;
35478;SDS011;21594;49.794;18.652;2022-07-29T08:42:20;4.95;;;3.33;;
35478;SDS011;21594;49.794;18.652;2022-07-29T08:44:47;5.00;;;3.27;;
35478;SDS011;21594;49.794;18.652;2022-07-29T08:47:15;6.08;;;3.42;;
35478;SDS011;21594;49.794;18.652;2022-07-29T08:49:43;4.25;;;2.90;;
35478;SDS011;21594;49.794;18.652;2022-07-29T08:52:10;5.97;;;3.27;;
35478;SDS011;21594;49.794;18.652;2022-07-29T08:54:43;5.62;;;3.62;;
35478;SDS011;21594;49.794;18.652;2022-07-29T08:57:14;4.92;;;3.40;;
35478;SDS011;21594;49.794;18.652;2022-07-29T08:59:47;5.37;;;3.72;;
35478;SDS011;21594;49.794;18.652;2022-07-29T09:04:46;6.33;;;2.90;;
35478;SDS011;21594;49.794;18.652;2022-07-29T09:07:16;5.37;;;3.30;;
35478;SDS011;21594;49.794;18.652;2022-07-29T09:09:44;9.25;;;3.47;;
35478;SDS011;21594;49.794;18.652;2022-07-29T09:12:12;4.95;;;3.80;;
35478;SDS011;21594;49.794;18.652;2022-07-29T09:19:36;6.53;;;3.40;;
35478;SDS011;21594;49.794;18.652;2022-07-29T09:22:03;5.30;;;3.37;;
35478;SDS011;21594;49.794;18.652;2022-07-29T09:27:17;6.92;;;3.50;;
35478;SDS011;21594;49.794;18.652;2022-07-29T09:29:39;3.20;;;2.90;;
35478;SDS011;21594;49.794;18.652;2022-07-29T09:32:05;3.72;;;3.08;;
35478;SDS011;21594;49.794;18.652;2022-07-29T09:34:35;5.03;;;3.20;;
35478;SDS011;21594;49.794;18.652;2022-07-29T09:37:01;3.72;;;3.00;;
35478;SDS011;21594;49.794;18.652;2022-07-29T09:39:29;3.72;;;3.20;;
35478;SDS011;21594;49.794;18.652;2022-07-29T09:41:58;4.62;;;3.83;;
35478;SDS011;21594;49.794;18.652;2022-07-29T09:44:43;4.85;;;3.42;;
35478;SDS011;21594;49.794;18.652;2022-07-29T09:47:20;4.33;;;3.22;;
35478;SDS011;21594;49.794;18.652;2022-07-29T09:49:52;4.45;;;3.20;;
35478;SDS011;21594;49.794;18.652;2022-07-29T09:52:23;4.42;;;3.35;;
35478;SDS011;21594;49.794;18.652;2022-07-29T09:54:50;5.72;;;3.42;;
35478;SDS011;21594;49.794;18.652;2022-07-29T09:57:24;4.03;;;3.08;;
35478;SDS011;21594;49.794;18.652;2022-07-29T10:00:09;4.87;;;3.30;;
35478;SDS011;21594;49.794;18.652;2022-07-29T10:02:35;4.92;;;3.17;;
35478;SDS011;21594;49.794;18.652;2022-07-29T10:05:04;6.80;;;3.70;;
35478;SDS011;21594;49.794;18.652;2022-07-29T10:07:47;7.05;;;3.08;;
35478;SDS011;21594;49.794;18.652;2022-07-29T10:12:56;3.15;;;2.85;;
35478;SDS011;21594;49.794;18.652;2022-07-29T10:15:25;5.97;;;3.17;;
35478;SDS011;21594;49.794;18.652;2022-07-29T10:18:02;5.78;;;3.12;;
35478;SDS011;21594;49.794;18.652;2022-07-29T10:20:29;6.15;;;3.33;;
35478;SDS011;21594;49.794;18.652;2022-07-29T10:22:56;4.03;;;3.10;;
35478;SDS011;21594;49.794;18.652;2022-07-29T10:25:24;5.05;;;2.87;;
35478;SDS011;21594;49.794;18.652;2022-07-29T10:27:52;8.55;;;3.47;;
35478;SDS011;21594;49.794;18.652;2022-07-29T10:30:31;3.52;;;2.90;;
35478;SDS011;21594;49.794;18.652;2022-07-29T10:38:34;5.33;;;3.05;;
35478;SDS011;21594;49.794;18.652;2022-07-29T10:44:07;3.15;;;2.77;;
35478;SDS011;21594;49.794;18.652;2022-07-29T10:46:46;9.45;;;4.58;;
35478;SDS011;21594;49.794;18.652;2022-07-29T10:52:09;25.23;;;8.88;;
35478;SDS011;21594;49.794;18.652;2022-07-29T10:54:37;9.63;;;4.62;;
35478;SDS011;21594;49.794;18.652;2022-07-29T11:02:45;4.85;;;3.30;;
35478;SDS011;21594;49.794;18.652;2022-07-29T11:05:16;5.30;;;3.47;;
35478;SDS011;21594;49.794;18.652;2022-07-29T11:10:29;3.37;;;2.60;;
35478;SDS011;21594;49.794;18.652;2022-07-29T11:12:55;8.98;;;3.42;;
35478;SDS011;21594;49.794;18.652;2022-07-29T11:15:26;6.55;;;3.22;;
35478;SDS011;21594;49.794;18.652;2022-07-29T11:20:35;4.87;;;2.93;;
35478;SDS011;21594;49.794;18.652;2022-07-29T11:23:26;4.62;;;3.15;;
35478;SDS011;21594;49.794;18.652;2022-07-29T11:31:34;3.55;;;3.10;;
35478;SDS011;21594;49.794;18.652;2022-07-29T11:39:38;4.05;;;3.08;;
35478;SDS011;21594;49.794;18.652;2022-07-29T11:45:06;5.37;;;2.77;;
35478;SDS011;21594;49.794;18.652;2022-07-29T11:48:03;4.58;;;2.60;;
35478;SDS011;21594;49.794;18.652;2022-07-29T11:50:36;3.45;;;2.65;;
35478;SDS011;21594;49.794;18.652;2022-07-29T11:53:11;5.97;;;2.65;;
35478;SDS011;21594;49.794;18.652;2022-07-29T11:55:38;3.90;;;2.37;;
35478;SDS011;21594;49.794;18.652;2022-07-29T11:58:07;5.25;;;2.47;;
35478;SDS011;21594;49.794;18.652;2022-07-29T12:00:35;4.37;;;2.42;;
35478;SDS011;21594;49.794;18.652;2022-07-29T12:03:08;3.15;;;2.60;;
35478;SDS011;21594;49.794;18.652;2022-07-29T12:05:38;4.53;;;2.72;;
35478;SDS011;21594;49.794;18.652;2022-07-29T12:08:09;5.00;;;2.60;;
35478;SDS011;21594;49.794;18.652;2022-07-29T12:10:37;4.80;;;2.98;;
35478;SDS011;21594;49.794;18.652;2022-07-29T12:13:04;2.80;;;2.60;;
35478;SDS011;21594;49.794;18.652;2022-07-29T12:15:33;3.92;;;2.58;;
35478;SDS011;21594;49.794;18.652;2022-07-29T12:18:09;3.45;;;2.80;;
35478;SDS011;21594;49.794;18.652;2022-07-29T12:20:42;3.17;;;2.80;;
35478;SDS011;21594;49.794;18.652;2022-07-29T12:23:16;5.55;;;2.58;;
35478;SDS011;21594;49.794;18.652;2022-07-29T12:25:43;5.37;;;2.75;;
35478;SDS011;21594;49.794;18.652;2022-07-29T12:28:10;3.40;;;2.45;;
35478;SDS011;21594;49.794;18.652;2022-07-29T12:33:25;3.23;;;2.47;;
35478;SDS011;21594;49.794;18.652;2022-07-29T12:36:00;3.80;;;2.47;;
35478;SDS011;21594;49.794;18.652;2022-07-29T12:38:28;3.75;;;2.40;;
35478;SDS011;21594;49.794;18.652;2022-07-29T12:40:55;2.58;;;2.37;;
35478;SDS011;21594;49.794;18.652;2022-07-29T12:43:26;4.78;;;2.33;;
35478;SDS011;21594;49.794;18.652;2022-07-29T12:45:52;7.20;;;2.40;;
35478;SDS011;21594;49.794;18.652;2022-07-29T12:51:06;3.98;;;2.80;;
35478;SDS011;21594;49.794;18.652;2022-07-29T12:53:36;6.78;;;2.98;;
35478;SDS011;21594;49.794;18.652;2022-07-29T12:56:03;4.70;;;2.92;;
35478;SDS011;21594;49.794;18.652;2022-07-29T12:58:34;3.80;;;2.52;;
35478;SDS011;21594;49.794;18.652;2022-07-29T13:01:04;2.83;;;2.47;;
35478;SDS011;21594;49.794;18.652;2022-07-29T13:06:36;3.27;;;2.60;;
35478;SDS011;21594;49.794;18.652;2022-07-29T13:09:35;2.33;;;1.57;;
35478;SDS011;21594;49.794;18.652;2022-07-29T13:11:52;3.00;;;2.37;;
35478;SDS011;21594;49.794;18.652;2022-07-29T13:14:35;3.80;;;2.50;;
35478;SDS011;21594;49.794;18.652;2022-07-29T13:17:04;4.90;;;2.52;;
35478;SDS011;21594;49.794;18.652;2022-07-29T13:24:57;2.90;;;2.40;;
35478;SDS011;21594;49.794;18.652;2022-07-29T13:27:28;5.53;;;2.62;;
35478;SDS011;21594;49.794;18.652;2022-07-29T13:29:58;2.77;;;2.58;;
35478;SDS011;21594;49.794;18.652;2022-07-29T13:32:26;2.62;;;2.02;;
35478;SDS011;21594;49.794;18.652;2022-07-29T13:34:55;3.58;;;2.40;;
35478;SDS011;21594;49.794;18.652;2022-07-29T13:37:22;2.98;;;2.10;;
35478;SDS011;21594;49.794;18.652;2022-07-29T13:39:49;5.03;;;2.70;;
35478;SDS011;21594;49.794;18.652;2022-07-29T13:42:15;4.03;;;2.95;;
35478;SDS011;21594;49.794;18.652;2022-07-29T13:44:42;6.20;;;2.47;;
35478;SDS011;21594;49.794;18.652;2022-07-29T13:49:41;3.80;;;2.60;;
35478;SDS011;21594;49.794;18.652;2022-07-29T13:52:14;2.75;;;2.35;;
35478;SDS011;21594;49.794;18.652;2022-07-29T13:54:41;4.47;;;2.47;;
35478;SDS011;21594;49.794;18.652;2022-07-29T13:57:09;3.52;;;2.50;;
35478;SDS011;21594;49.794;18.652;2022-07-29T13:59:39;3.33;;;2.77;;
35478;SDS011;21594;49.794;18.652;2022-07-29T14:02:07;4.95;;;2.33;;
35478;SDS011;21594;49.794;18.652;2022-07-29T14:04:34;6.40;;;2.72;;
35478;SDS011;21594;49.794;18.652;2022-07-29T14:07:06;3.33;;;2.35;;
35478;SDS011;21594;49.794;18.652;2022-07-29T14:09:33;4.50;;;2.80;;
35478;SDS011;21594;49.794;18.652;2022-07-29T14:11:59;4.55;;;2.42;;
35478;SDS011;21594;49.794;18.652;2022-07-29T14:14:26;3.92;;;2.62;;
35478;SDS011;21594;49.794;18.652;2022-07-29T14:16:53;3.92;;;2.70;;
35478;SDS011;21594;49.794;18.652;2022-07-29T14:19:19;3.30;;;2.40;;
35478;SDS011;21594;49.794;18.652;2022-07-29T14:21:45;3.70;;;2.55;;
35478;SDS011;21594;49.794;18.652;2022-07-29T14:24:13;2.90;;;2.45;;
35478;SDS011;21594;49.794;18.652;2022-07-29T14:26:41;3.35;;;2.10;;
35478;SDS011;21594;49.794;18.652;2022-07-29T14:29:07;4.17;;;2.27;;
35478;SDS011;21594;49.794;18.652;2022-07-29T14:31:35;2.95;;;2.10;;
35478;SDS011;21594;49.794;18.652;2022-07-29T14:34:03;6.05;;;2.35;;
35478;SDS011;21594;49.794;18.652;2022-07-29T14:36:30;2.25;;;2.05;;
35478;SDS011;21594;49.794;18.652;2022-07-29T14:38:56;3.35;;;2.50;;
35478;SDS011;21594;49.794;18.652;2022-07-29T14:41:22;3.58;;;2.02;;
35478;SDS011;21594;49.794;18.652;2022-07-29T14:43:48;2.45;;;2.25;;
35478;SDS011;21594;49.794;18.652;2022-07-29T14:46:17;5.97;;;2.22;;
35478;SDS011;21594;49.794;18.652;2022-07-29T14:48:43;4.28;;;2.40;;
35478;SDS011;21594;49.794;18.652;2022-07-29T14:51:10;2.77;;;2.02;;
35478;SDS011;21594;49.794;18.652;2022-07-29T14:53:37;2.10;;;1.90;;
35478;SDS011;21594;49.794;18.652;2022-07-29T14:56:03;2.62;;;1.77;;
35478;SDS011;21594;49.794;18.652;2022-07-29T14:58:29;12.60;;;2.72;;
35478;SDS011;21594;49.794;18.652;2022-07-29T15:00:56;4.30;;;2.60;;
35478;SDS011;21594;49.794;18.652;2022-07-29T15:03:22;2.33;;;2.08;;
35478;SDS011;21594;49.794;18.652;2022-07-29T15:05:48;5.95;;;2.37;;
35478;SDS011;21594;49.794;18.652;2022-07-29T15:08:15;4.10;;;2.35;;
35478;SDS011;21594;49.794;18.652;2022-07-29T15:10:42;2.80;;;2.02;;
35478;SDS011;21594;49.794;18.652;2022-07-29T15:13:08;2.58;;;2.37;;
35478;SDS011;21594;49.794;18.652;2022-07-29T15:15:39;4.50;;;2.30;;
35478;SDS011;21594;49.794;18.652;2022-07-29T15:18:06;2.65;;;2.30;;
35478;SDS011;21594;49.794;18.652;2022-07-29T15:20:33;4.15;;;2.08;;
35478;SDS011;21594;49.794;18.652;2022-07-29T15:22:59;3.90;;;2.30;;
35478;SDS011;21594;49.794;18.652;2022-07-29T15:25:30;2.40;;;1.92;;
35478;SDS011;21594;49.794;18.652;2022-07-29T15:27:59;3.20;;;1.80;;
35478;SDS011;21594;49.794;18.652;2022-07-29T15:30:29;1.20;;;1.10;;
35478;SDS011;21594;49.794;18.652;2022-07-29T15:32:56;4.03;;;1.60;;
35478;SDS011;21594;49.794;18.652;2022-07-29T15:35:22;2.77;;;1.50;;
35478;SDS011;21594;49.794;18.652;2022-07-29T15:37:48;1.37;;;1.15;;
35478;SDS011;21594;49.794;18.652;2022-07-29T15:40:14;1.35;;;1.00;;
35478;SDS011;21594;49.794;18.652;2022-07-29T15:42:47;5.37;;;1.27;;
35478;SDS011;21594;49.794;18.652;2022-07-29T15:45:14;1.75;;;1.20;;
35478;SDS011;21594;49.794;18.652;2022-07-29T15:47:40;2.30;;;0.98;;
35478;SDS011;21594;49.794;18.652;2022-07-29T15:50:06;3.47;;;1.47;;
35478;SDS011;21594;49.794;18.652;2022-07-29T15:52:35;4.10;;;1.20;;
35478;SDS011;21594;49.794;18.652;2022-07-29T15:55:01;1.15;;;1.05;;
35478;SDS011;21594;49.794;18.652;2022-07-29T15:57:27;1.80;;;1.20;;
35478;SDS011;21594;49.794;18.652;2022-07-29T15:59:54;1.75;;;1.15;;
35478;SDS011;21594;49.794;18.652;2022-07-29T16:02:21;1.17;;;1.07;;
35478;SDS011;21594;49.794;18.652;2022-07-29T16:04:47;1.47;;;1.37;;
35478;SDS011;21594;49.794;18.652;2022-07-29T16:07:14;1.32;;;1.22;;
35478;SDS011;21594;49.794;18.652;2022-07-29T16:09:41;1.62;;;1.50;;
35478;SDS011;21594;49.794;18.652;2022-07-29T16:12:09;2.02;;;1.55;;
35478;SDS011;21594;49.794;18.652;2022-07-29T16:14:38;1.90;;;1.70;;